sensor_id;sensor_type;location;lat;lon;timestamp;temperature;humidity
21267;DHT22;10791;53.108;18.326;2024-03-06T00:01:43;5.20;99.90
21267;DHT22;10791;53.108;18.326;2024-03-06T00:06:46;5.20;99.90
21267;DHT22;10791;53.108;18.326;2024-03-06T00:11:49;5.20;99.90
21267;DHT22;10791;53.108;18.326;2024-03-06T00:16:56;5.20;99.90
21267;DHT22;10791;53.108;18.326;2024-03-06T00:22:00;5.30;99.90
21267;DHT22;10791;53.108;18.326;2024-03-06T00:27:04;5.30;99.90
21267;DHT22;10791;53.108;18.326;2024-03-06T00:32:08;5.30;99.90
21267;DHT22;10791;53.108;18.326;2024-03-06T00:37:11;5.30;99.90
21267;DHT22;10791;53.108;18.326;2024-03-06T00:42:14;5.30;99.90
21267;DHT22;10791;53.108;18.326;2024-03-06T00:47:18;5.40;99.90
21267;DHT22;10791;53.108;18.326;2024-03-06T00:52:22;5.40;99.90
21267;DHT22;10791;53.108;18.326;2024-03-06T00:57:26;5.40;99.90
21267;DHT22;10791;53.108;18.326;2024-03-06T01:02:29;5.40;99.90
21267;DHT22;10791;53.108;18.326;2024-03-06T01:07:33;5.40;99.90
21267;DHT22;10791;53.108;18.326;2024-03-06T01:12:38;5.40;99.90
21267;DHT22;10791;53.108;18.326;2024-03-06T01:17:41;5.40;99.90
21267;DHT22;10791;53.108;18.326;2024-03-06T01:22:45;5.40;99.90
21267;DHT22;10791;53.108;18.326;2024-03-06T01:27:50;5.40;99.90
21267;DHT22;10791;53.108;18.326;2024-03-06T01:32:53;5.40;99.90
21267;DHT22;10791;53.108;18.326;2024-03-06T01:37:57;5.30;99.90
21267;DHT22;10791;53.108;18.326;2024-03-06T01:43:01;5.40;99.90
21267;DHT22;10791;53.108;18.326;2024-03-06T01:48:06;5.30;99.90
21267;DHT22;10791;53.108;18.326;2024-03-06T01:53:13;5.20;99.90
21267;DHT22;10791;53.108;18.326;2024-03-06T01:58:17;5.20;99.90
21267;DHT22;10791;53.108;18.326;2024-03-06T02:03:21;5.20;99.90
21267;DHT22;10791;53.108;18.326;2024-03-06T02:08:25;5.10;99.90
21267;DHT22;10791;53.108;18.326;2024-03-06T02:13:29;5.10;99.90
21267;DHT22;10791;53.108;18.326;2024-03-06T02:18:32;5.10;99.90
21267;DHT22;10791;53.108;18.326;2024-03-06T02:23:36;5.10;99.90
21267;DHT22;10791;53.108;18.326;2024-03-06T02:28:39;5.10;99.90
21267;DHT22;10791;53.108;18.326;2024-03-06T02:33:46;5.10;99.90
21267;DHT22;10791;53.108;18.326;2024-03-06T02:38:52;5.00;99.90
21267;DHT22;10791;53.108;18.326;2024-03-06T02:43:56;5.00;99.90
21267;DHT22;10791;53.108;18.326;2024-03-06T02:48:59;5.00;99.90
21267;DHT22;10791;53.108;18.326;2024-03-06T02:54:02;5.00;99.90
21267;DHT22;10791;53.108;18.326;2024-03-06T02:59:06;5.00;99.90
21267;DHT22;10791;53.108;18.326;2024-03-06T03:04:10;5.00;99.90
21267;DHT22;10791;53.108;18.326;2024-03-06T03:09:14;5.00;99.90
21267;DHT22;10791;53.108;18.326;2024-03-06T03:14:16;4.90;99.90
21267;DHT22;10791;53.108;18.326;2024-03-06T03:19:20;5.00;99.90
21267;DHT22;10791;53.108;18.326;2024-03-06T03:24:23;5.00;99.90
21267;DHT22;10791;53.108;18.326;2024-03-06T03:29:29;5.10;99.90
21267;DHT22;10791;53.108;18.326;2024-03-06T03:34:34;5.20;99.90
21267;DHT22;10791;53.108;18.326;2024-03-06T03:39:38;5.20;99.90
21267;DHT22;10791;53.108;18.326;2024-03-06T03:44:42;5.20;99.90
21267;DHT22;10791;53.108;18.326;2024-03-06T03:49:45;5.20;99.90
21267;DHT22;10791;53.108;18.326;2024-03-06T03:55:01;5.30;99.90
21267;DHT22;10791;53.108;18.326;2024-03-06T04:00:05;5.30;99.90
21267;DHT22;10791;53.108;18.326;2024-03-06T04:05:14;5.30;99.90
21267;DHT22;10791;53.108;18.326;2024-03-06T04:10:17;5.10;99.90
21267;DHT22;10791;53.108;18.326;2024-03-06T04:15:21;5.20;99.90
21267;DHT22;10791;53.108;18.326;2024-03-06T04:20:24;5.20;99.90
21267;DHT22;10791;53.108;18.326;2024-03-06T04:25:28;5.30;99.90
21267;DHT22;10791;53.108;18.326;2024-03-06T04:30:31;5.20;99.90
21267;DHT22;10791;53.108;18.326;2024-03-06T04:35:34;5.20;99.90
21267;DHT22;10791;53.108;18.326;2024-03-06T04:40:39;5.40;99.90
21267;DHT22;10791;53.108;18.326;2024-03-06T04:45:42;5.40;99.90
21267;DHT22;10791;53.108;18.326;2024-03-06T04:50:45;5.30;99.90
21267;DHT22;10791;53.108;18.326;2024-03-06T04:55:49;5.40;99.90
21267;DHT22;10791;53.108;18.326;2024-03-06T05:00:52;5.30;99.90
21267;DHT22;10791;53.108;18.326;2024-03-06T05:05:55;5.20;99.90
21267;DHT22;10791;53.108;18.326;2024-03-06T05:11:16;5.20;99.90
21267;DHT22;10791;53.108;18.326;2024-03-06T05:16:37;5.20;99.90
21267;DHT22;10791;53.108;18.326;2024-03-06T05:22:00;5.20;99.90
21267;DHT22;10791;53.108;18.326;2024-03-06T05:27:21;5.20;99.90
21267;DHT22;10791;53.108;18.326;2024-03-06T05:32:41;5.20;99.90
21267;DHT22;10791;53.108;18.326;2024-03-06T05:38:01;5.20;99.90
21267;DHT22;10791;53.108;18.326;2024-03-06T05:43:23;5.20;99.90
21267;DHT22;10791;53.108;18.326;2024-03-06T05:48:43;5.30;99.90
21267;DHT22;10791;53.108;18.326;2024-03-06T05:54:03;5.30;99.90
21267;DHT22;10791;53.108;18.326;2024-03-06T05:59:25;5.30;99.90
21267;DHT22;10791;53.108;18.326;2024-03-06T06:04:29;5.30;99.90
21267;DHT22;10791;53.108;18.326;2024-03-06T06:09:38;5.30;99.90
21267;DHT22;10791;53.108;18.326;2024-03-06T06:14:42;5.40;99.90
21267;DHT22;10791;53.108;18.326;2024-03-06T06:19:46;5.40;99.90
21267;DHT22;10791;53.108;18.326;2024-03-06T06:24:49;5.40;99.90
21267;DHT22;10791;53.108;18.326;2024-03-06T06:29:53;5.50;99.90
21267;DHT22;10791;53.108;18.326;2024-03-06T06:34:58;5.50;99.90
21267;DHT22;10791;53.108;18.326;2024-03-06T06:40:02;5.50;99.90
21267;DHT22;10791;53.108;18.326;2024-03-06T06:45:10;5.50;99.90
21267;DHT22;10791;53.108;18.326;2024-03-06T06:50:13;5.50;99.90
21267;DHT22;10791;53.108;18.326;2024-03-06T06:55:17;5.50;99.90
21267;DHT22;10791;53.108;18.326;2024-03-06T07:00:20;5.60;99.90
21267;DHT22;10791;53.108;18.326;2024-03-06T07:05:26;5.60;99.90
21267;DHT22;10791;53.108;18.326;2024-03-06T07:10:30;5.60;99.90
21267;DHT22;10791;53.108;18.326;2024-03-06T07:15:33;5.60;99.90
21267;DHT22;10791;53.108;18.326;2024-03-06T07:20:36;5.60;99.90
21267;DHT22;10791;53.108;18.326;2024-03-06T07:25:40;5.60;99.90
21267;DHT22;10791;53.108;18.326;2024-03-06T07:30:43;5.60;99.90
21267;DHT22;10791;53.108;18.326;2024-03-06T07:35:47;5.60;99.90
21267;DHT22;10791;53.108;18.326;2024-03-06T07:40:51;5.60;99.90
21267;DHT22;10791;53.108;18.326;2024-03-06T07:45:55;5.60;99.90
21267;DHT22;10791;53.108;18.326;2024-03-06T07:50:58;5.60;99.90
21267;DHT22;10791;53.108;18.326;2024-03-06T07:56:03;5.60;99.90
21267;DHT22;10791;53.108;18.326;2024-03-06T08:01:07;5.60;99.90
21267;DHT22;10791;53.108;18.326;2024-03-06T08:06:11;5.60;99.90
21267;DHT22;10791;53.108;18.326;2024-03-06T08:11:14;5.60;99.90
21267;DHT22;10791;53.108;18.326;2024-03-06T08:16:18;5.60;99.90
21267;DHT22;10791;53.108;18.326;2024-03-06T08:21:22;5.60;99.90
21267;DHT22;10791;53.108;18.326;2024-03-06T08:26:25;5.50;99.90
21267;DHT22;10791;53.108;18.326;2024-03-06T08:31:30;5.60;99.90
21267;DHT22;10791;53.108;18.326;2024-03-06T08:36:34;5.60;99.90
21267;DHT22;10791;53.108;18.326;2024-03-06T08:41:38;5.70;99.90
21267;DHT22;10791;53.108;18.326;2024-03-06T08:46:42;5.70;99.90
21267;DHT22;10791;53.108;18.326;2024-03-06T08:51:46;5.80;99.90
21267;DHT22;10791;53.108;18.326;2024-03-06T08:56:50;5.80;99.90
21267;DHT22;10791;53.108;18.326;2024-03-06T09:01:56;5.90;99.90
21267;DHT22;10791;53.108;18.326;2024-03-06T09:07:01;6.10;99.90
21267;DHT22;10791;53.108;18.326;2024-03-06T09:12:08;6.20;99.90
21267;DHT22;10791;53.108;18.326;2024-03-06T09:17:16;6.30;99.90
21267;DHT22;10791;53.108;18.326;2024-03-06T09:22:20;6.40;99.90
21267;DHT22;10791;53.108;18.326;2024-03-06T09:27:23;6.50;99.90
21267;DHT22;10791;53.108;18.326;2024-03-06T09:32:27;6.70;99.90
21267;DHT22;10791;53.108;18.326;2024-03-06T09:37:30;6.70;99.90
21267;DHT22;10791;53.108;18.326;2024-03-06T09:42:34;6.70;99.90
21267;DHT22;10791;53.108;18.326;2024-03-06T09:47:38;6.70;99.90
21267;DHT22;10791;53.108;18.326;2024-03-06T09:52:43;6.80;99.90
21267;DHT22;10791;53.108;18.326;2024-03-06T09:57:49;6.80;99.90
21267;DHT22;10791;53.108;18.326;2024-03-06T10:03:01;6.80;99.90
21267;DHT22;10791;53.108;18.326;2024-03-06T10:08:06;7.00;99.90
21267;DHT22;10791;53.108;18.326;2024-03-06T10:13:10;7.10;99.90
21267;DHT22;10791;53.108;18.326;2024-03-06T10:18:15;7.30;99.90
21267;DHT22;10791;53.108;18.326;2024-03-06T10:23:19;7.30;99.90
21267;DHT22;10791;53.108;18.326;2024-03-06T10:28:23;7.30;99.90
21267;DHT22;10791;53.108;18.326;2024-03-06T10:33:27;7.40;99.90
21267;DHT22;10791;53.108;18.326;2024-03-06T10:38:35;7.40;99.90
21267;DHT22;10791;53.108;18.326;2024-03-06T10:43:43;7.30;99.90
21267;DHT22;10791;53.108;18.326;2024-03-06T10:48:48;7.30;99.90
21267;DHT22;10791;53.108;18.326;2024-03-06T10:53:53;7.30;99.90
21267;DHT22;10791;53.108;18.326;2024-03-06T10:58:59;7.30;99.90
21267;DHT22;10791;53.108;18.326;2024-03-06T11:04:04;7.30;99.90
21267;DHT22;10791;53.108;18.326;2024-03-06T11:09:08;7.30;99.90
21267;DHT22;10791;53.108;18.326;2024-03-06T11:14:23;7.30;99.90
21267;DHT22;10791;53.108;18.326;2024-03-06T11:19:32;7.20;99.90
21267;DHT22;10791;53.108;18.326;2024-03-06T11:24:36;7.20;99.90
21267;DHT22;10791;53.108;18.326;2024-03-06T11:30:09;7.20;99.90
21267;DHT22;10791;53.108;18.326;2024-03-06T11:35:18;7.30;99.90
21267;DHT22;10791;53.108;18.326;2024-03-06T11:40:25;7.30;99.90
21267;DHT22;10791;53.108;18.326;2024-03-06T11:45:31;7.40;99.90
21267;DHT22;10791;53.108;18.326;2024-03-06T11:50:34;7.40;99.90
21267;DHT22;10791;53.108;18.326;2024-03-06T11:55:40;7.40;99.90
21267;DHT22;10791;53.108;18.326;2024-03-06T12:00:43;7.40;99.90
21267;DHT22;10791;53.108;18.326;2024-03-06T12:05:50;7.40;99.90
21267;DHT22;10791;53.108;18.326;2024-03-06T12:10:55;7.40;99.90
21267;DHT22;10791;53.108;18.326;2024-03-06T12:16:07;7.40;99.90
21267;DHT22;10791;53.108;18.326;2024-03-06T12:21:10;7.40;99.90
21267;DHT22;10791;53.108;18.326;2024-03-06T12:26:14;7.50;99.90
21267;DHT22;10791;53.108;18.326;2024-03-06T12:31:18;7.60;99.90
21267;DHT22;10791;53.108;18.326;2024-03-06T12:36:25;7.70;99.90
21267;DHT22;10791;53.108;18.326;2024-03-06T12:41:29;7.70;99.90
21267;DHT22;10791;53.108;18.326;2024-03-06T12:46:33;7.70;99.90
21267;DHT22;10791;53.108;18.326;2024-03-06T12:51:37;7.80;99.90
21267;DHT22;10791;53.108;18.326;2024-03-06T12:56:40;7.90;99.90
21267;DHT22;10791;53.108;18.326;2024-03-06T13:01:45;7.90;99.90
21267;DHT22;10791;53.108;18.326;2024-03-06T13:06:48;7.90;99.90
21267;DHT22;10791;53.108;18.326;2024-03-06T13:11:52;7.90;99.90
21267;DHT22;10791;53.108;18.326;2024-03-06T13:16:55;7.90;99.90
21267;DHT22;10791;53.108;18.326;2024-03-06T13:21:58;7.90;99.90
21267;DHT22;10791;53.108;18.326;2024-03-06T13:27:06;8.00;99.90
21267;DHT22;10791;53.108;18.326;2024-03-06T13:32:10;8.10;99.90
21267;DHT22;10791;53.108;18.326;2024-03-06T13:37:14;8.10;99.90
21267;DHT22;10791;53.108;18.326;2024-03-06T13:42:17;8.10;99.90
21267;DHT22;10791;53.108;18.326;2024-03-06T13:47:21;8.10;99.90
21267;DHT22;10791;53.108;18.326;2024-03-06T13:52:24;8.00;99.90
21267;DHT22;10791;53.108;18.326;2024-03-06T13:57:28;8.00;99.90
21267;DHT22;10791;53.108;18.326;2024-03-06T14:02:32;8.30;99.90
21267;DHT22;10791;53.108;18.326;2024-03-06T14:07:38;8.80;99.90
21267;DHT22;10791;53.108;18.326;2024-03-06T14:12:41;8.70;99.90
21267;DHT22;10791;53.108;18.326;2024-03-06T14:17:45;8.30;99.90
21267;DHT22;10791;53.108;18.326;2024-03-06T14:35:48;8.90;99.90
21267;DHT22;10791;53.108;18.326;2024-03-06T14:40:52;9.00;99.90
21267;DHT22;10791;53.108;18.326;2024-03-06T14:45:56;9.10;99.90
21267;DHT22;10791;53.108;18.326;2024-03-06T14:51:00;9.20;99.90
21267;DHT22;10791;53.108;18.326;2024-03-06T14:56:03;9.30;99.90
21267;DHT22;10791;53.108;18.326;2024-03-06T15:01:07;9.40;98.80
21267;DHT22;10791;53.108;18.326;2024-03-06T15:06:13;9.30;99.80
21267;DHT22;10791;53.108;18.326;2024-03-06T15:11:17;9.30;99.90
21267;DHT22;10791;53.108;18.326;2024-03-06T15:16:20;9.10;99.30
21267;DHT22;10791;53.108;18.326;2024-03-06T15:21:24;8.90;99.90
21267;DHT22;10791;53.108;18.326;2024-03-06T15:26:27;8.90;99.90
21267;DHT22;10791;53.108;18.326;2024-03-06T15:31:30;8.90;99.40
21267;DHT22;10791;53.108;18.326;2024-03-06T15:36:33;8.90;99.60
21267;DHT22;10791;53.108;18.326;2024-03-06T15:41:37;8.90;99.90
21267;DHT22;10791;53.108;18.326;2024-03-06T15:46:41;8.60;99.90
21267;DHT22;10791;53.108;18.326;2024-03-06T15:51:53;8.20;99.90
21267;DHT22;10791;53.108;18.326;2024-03-06T15:56:57;7.90;99.90
21267;DHT22;10791;53.108;18.326;2024-03-06T16:02:01;7.70;99.90
21267;DHT22;10791;53.108;18.326;2024-03-06T16:07:05;7.50;99.90
21267;DHT22;10791;53.108;18.326;2024-03-06T16:12:09;7.20;99.90
21267;DHT22;10791;53.108;18.326;2024-03-06T16:17:12;7.10;99.90
21267;DHT22;10791;53.108;18.326;2024-03-06T16:22:17;6.90;99.90
21267;DHT22;10791;53.108;18.326;2024-03-06T16:27:20;6.70;99.90
21267;DHT22;10791;53.108;18.326;2024-03-06T16:32:25;6.50;99.90
21267;DHT22;10791;53.108;18.326;2024-03-06T16:37:30;6.30;99.90
21267;DHT22;10791;53.108;18.326;2024-03-06T16:42:34;6.20;99.90
21267;DHT22;10791;53.108;18.326;2024-03-06T16:47:37;6.00;99.90
21267;DHT22;10791;53.108;18.326;2024-03-06T16:52:41;5.80;99.90
21267;DHT22;10791;53.108;18.326;2024-03-06T16:57:45;5.60;99.90
21267;DHT22;10791;53.108;18.326;2024-03-06T17:02:48;5.40;99.90
21267;DHT22;10791;53.108;18.326;2024-03-06T17:07:52;5.30;99.90
21267;DHT22;10791;53.108;18.326;2024-03-06T17:12:56;5.10;99.90
21267;DHT22;10791;53.108;18.326;2024-03-06T17:18:00;4.90;99.90
21267;DHT22;10791;53.108;18.326;2024-03-06T17:23:07;4.80;99.90
21267;DHT22;10791;53.108;18.326;2024-03-06T17:28:10;4.90;99.90
21267;DHT22;10791;53.108;18.326;2024-03-06T17:33:14;4.80;99.90
21267;DHT22;10791;53.108;18.326;2024-03-06T17:38:19;4.60;99.90
21267;DHT22;10791;53.108;18.326;2024-03-06T17:43:23;4.40;99.90
21267;DHT22;10791;53.108;18.326;2024-03-06T17:48:26;4.40;99.90
21267;DHT22;10791;53.108;18.326;2024-03-06T17:53:31;4.30;99.90
21267;DHT22;10791;53.108;18.326;2024-03-06T17:58:35;4.20;99.90
21267;DHT22;10791;53.108;18.326;2024-03-06T18:03:40;4.00;99.90
21267;DHT22;10791;53.108;18.326;2024-03-06T18:08:44;3.90;99.90
21267;DHT22;10791;53.108;18.326;2024-03-06T18:13:48;3.80;99.90
21267;DHT22;10791;53.108;18.326;2024-03-06T18:18:52;3.60;99.90
21267;DHT22;10791;53.108;18.326;2024-03-06T18:23:56;3.50;99.90
21267;DHT22;10791;53.108;18.326;2024-03-06T18:29:03;3.40;99.90
21267;DHT22;10791;53.108;18.326;2024-03-06T18:34:06;3.30;99.90
21267;DHT22;10791;53.108;18.326;2024-03-06T18:39:10;3.20;99.90
21267;DHT22;10791;53.108;18.326;2024-03-06T18:44:14;3.10;99.90
21267;DHT22;10791;53.108;18.326;2024-03-06T18:49:18;3.00;99.90
21267;DHT22;10791;53.108;18.326;2024-03-06T18:54:26;2.90;99.90
21267;DHT22;10791;53.108;18.326;2024-03-06T18:59:29;2.90;99.90
21267;DHT22;10791;53.108;18.326;2024-03-06T19:04:34;2.80;99.90
21267;DHT22;10791;53.108;18.326;2024-03-06T19:09:40;2.70;99.90
21267;DHT22;10791;53.108;18.326;2024-03-06T19:14:44;2.50;99.90
21267;DHT22;10791;53.108;18.326;2024-03-06T19:19:48;2.50;99.90
21267;DHT22;10791;53.108;18.326;2024-03-06T19:24:53;2.40;99.90
21267;DHT22;10791;53.108;18.326;2024-03-06T19:29:58;2.30;99.90
21267;DHT22;10791;53.108;18.326;2024-03-06T19:35:02;2.30;99.90
21267;DHT22;10791;53.108;18.326;2024-03-06T19:40:07;2.20;99.90
21267;DHT22;10791;53.108;18.326;2024-03-06T19:45:13;2.20;99.90
21267;DHT22;10791;53.108;18.326;2024-03-06T19:50:17;2.20;99.90
21267;DHT22;10791;53.108;18.326;2024-03-06T19:55:22;2.10;99.90
21267;DHT22;10791;53.108;18.326;2024-03-06T20:00:26;2.10;99.90
21267;DHT22;10791;53.108;18.326;2024-03-06T20:05:31;2.00;99.90
21267;DHT22;10791;53.108;18.326;2024-03-06T20:10:37;2.00;99.90
21267;DHT22;10791;53.108;18.326;2024-03-06T20:15:41;2.00;99.90
21267;DHT22;10791;53.108;18.326;2024-03-06T20:20:46;2.00;99.90
21267;DHT22;10791;53.108;18.326;2024-03-06T20:25:51;1.90;99.90
21267;DHT22;10791;53.108;18.326;2024-03-06T20:31:01;1.90;99.90
21267;DHT22;10791;53.108;18.326;2024-03-06T20:36:07;1.90;99.90
21267;DHT22;10791;53.108;18.326;2024-03-06T20:41:12;1.80;99.90
21267;DHT22;10791;53.108;18.326;2024-03-06T20:46:17;1.90;99.90
21267;DHT22;10791;53.108;18.326;2024-03-06T20:51:23;2.00;99.90
21267;DHT22;10791;53.108;18.326;2024-03-06T20:56:27;2.00;99.90
21267;DHT22;10791;53.108;18.326;2024-03-06T21:01:32;2.00;99.90
21267;DHT22;10791;53.108;18.326;2024-03-06T21:06:38;2.00;99.90
21267;DHT22;10791;53.108;18.326;2024-03-06T21:11:43;1.90;99.90
21267;DHT22;10791;53.108;18.326;2024-03-06T21:16:48;1.90;99.90
21267;DHT22;10791;53.108;18.326;2024-03-06T21:21:54;1.80;99.90
21267;DHT22;10791;53.108;18.326;2024-03-06T21:27:00;1.80;99.90
21267;DHT22;10791;53.108;18.326;2024-03-06T21:32:06;1.80;99.90
21267;DHT22;10791;53.108;18.326;2024-03-06T21:37:10;1.70;99.90
21267;DHT22;10791;53.108;18.326;2024-03-06T21:42:15;1.80;99.90
21267;DHT22;10791;53.108;18.326;2024-03-06T21:47:18;1.70;99.90
21267;DHT22;10791;53.108;18.326;2024-03-06T21:52:22;1.70;99.90
21267;DHT22;10791;53.108;18.326;2024-03-06T21:57:26;1.70;99.90
21267;DHT22;10791;53.108;18.326;2024-03-06T22:02:30;1.60;99.90
21267;DHT22;10791;53.108;18.326;2024-03-06T22:07:34;1.50;99.90
21267;DHT22;10791;53.108;18.326;2024-03-06T22:12:37;1.50;99.90
21267;DHT22;10791;53.108;18.326;2024-03-06T22:17:40;1.40;99.90
21267;DHT22;10791;53.108;18.326;2024-03-06T22:22:47;1.40;99.90
21267;DHT22;10791;53.108;18.326;2024-03-06T22:27:51;1.40;99.90
21267;DHT22;10791;53.108;18.326;2024-03-06T22:32:54;1.30;99.90
21267;DHT22;10791;53.108;18.326;2024-03-06T22:38:00;1.20;99.90
21267;DHT22;10791;53.108;18.326;2024-03-06T22:43:04;1.20;99.90
21267;DHT22;10791;53.108;18.326;2024-03-06T22:48:08;1.20;99.90
21267;DHT22;10791;53.108;18.326;2024-03-06T22:53:12;1.10;99.90
21267;DHT22;10791;53.108;18.326;2024-03-06T22:58:15;1.20;99.90
21267;DHT22;10791;53.108;18.326;2024-03-06T23:03:19;1.20;99.90
21267;DHT22;10791;53.108;18.326;2024-03-06T23:08:25;1.20;99.90
21267;DHT22;10791;53.108;18.326;2024-03-06T23:13:28;1.20;99.90
21267;DHT22;10791;53.108;18.326;2024-03-06T23:18:31;1.20;99.90
21267;DHT22;10791;53.108;18.326;2024-03-06T23:23:35;1.10;99.90
21267;DHT22;10791;53.108;18.326;2024-03-06T23:28:38;1.20;99.90
21267;DHT22;10791;53.108;18.326;2024-03-06T23:33:41;1.10;99.90
21267;DHT22;10791;53.108;18.326;2024-03-06T23:38:45;1.10;99.90
21267;DHT22;10791;53.108;18.326;2024-03-06T23:43:48;0.90;99.90
21267;DHT22;10791;53.108;18.326;2024-03-06T23:48:51;0.90;99.90
21267;DHT22;10791;53.108;18.326;2024-03-06T23:53:54;0.90;99.90
21267;DHT22;10791;53.108;18.326;2024-03-06T23:58:59;0.80;99.90
